sensor_id;sensor_type;location;lat;lon;timestamp;temperature;humidity
16198;DHT22;8206;51.440;6.914;2023-04-15T00:00:03;7.30;99.90
16198;DHT22;8206;51.440;6.914;2023-04-15T00:02:30;7.30;99.90
16198;DHT22;8206;51.440;6.914;2023-04-15T00:04:56;7.30;99.90
16198;DHT22;8206;51.440;6.914;2023-04-15T00:07:23;7.20;99.90
16198;DHT22;8206;51.440;6.914;2023-04-15T00:09:51;7.20;99.90
16198;DHT22;8206;51.440;6.914;2023-04-15T00:12:19;7.10;99.90
16198;DHT22;8206;51.440;6.914;2023-04-15T00:14:46;7.10;99.90
16198;DHT22;8206;51.440;6.914;2023-04-15T00:17:13;7.10;99.90
16198;DHT22;8206;51.440;6.914;2023-04-15T00:19:40;7.00;99.90
16198;DHT22;8206;51.440;6.914;2023-04-15T00:22:07;7.00;99.90
16198;DHT22;8206;51.440;6.914;2023-04-15T00:24:33;7.00;99.90
16198;DHT22;8206;51.440;6.914;2023-04-15T00:27:01;6.90;99.90
16198;DHT22;8206;51.440;6.914;2023-04-15T00:29:28;6.90;99.90
16198;DHT22;8206;51.440;6.914;2023-04-15T00:31:55;6.80;99.90
16198;DHT22;8206;51.440;6.914;2023-04-15T00:34:22;6.70;99.90
16198;DHT22;8206;51.440;6.914;2023-04-15T00:36:49;6.70;99.90
16198;DHT22;8206;51.440;6.914;2023-04-15T00:39:16;6.60;99.90
16198;DHT22;8206;51.440;6.914;2023-04-15T00:41:43;6.60;99.90
16198;DHT22;8206;51.440;6.914;2023-04-15T00:44:12;6.50;99.90
16198;DHT22;8206;51.440;6.914;2023-04-15T00:46:39;6.50;99.90
16198;DHT22;8206;51.440;6.914;2023-04-15T00:49:07;6.40;99.90
16198;DHT22;8206;51.440;6.914;2023-04-15T00:51:33;6.50;99.90
16198;DHT22;8206;51.440;6.914;2023-04-15T00:54:02;6.40;99.90
16198;DHT22;8206;51.440;6.914;2023-04-15T00:56:29;6.40;99.90
16198;DHT22;8206;51.440;6.914;2023-04-15T00:58:56;6.30;99.90
16198;DHT22;8206;51.440;6.914;2023-04-15T01:01:25;6.30;99.90
16198;DHT22;8206;51.440;6.914;2023-04-15T01:03:52;6.40;99.90
16198;DHT22;8206;51.440;6.914;2023-04-15T01:06:18;6.50;99.90
16198;DHT22;8206;51.440;6.914;2023-04-15T01:08:45;6.50;99.90
16198;DHT22;8206;51.440;6.914;2023-04-15T01:11:13;6.50;99.90
16198;DHT22;8206;51.440;6.914;2023-04-15T01:13:40;6.50;99.90
16198;DHT22;8206;51.440;6.914;2023-04-15T01:16:07;6.50;99.90
16198;DHT22;8206;51.440;6.914;2023-04-15T01:18:35;6.40;99.90
16198;DHT22;8206;51.440;6.914;2023-04-15T01:21:03;6.40;99.90
16198;DHT22;8206;51.440;6.914;2023-04-15T01:23:31;6.40;99.90
16198;DHT22;8206;51.440;6.914;2023-04-15T01:25:59;6.40;99.90
16198;DHT22;8206;51.440;6.914;2023-04-15T01:28:27;6.40;99.90
16198;DHT22;8206;51.440;6.914;2023-04-15T01:31:05;6.30;99.90
16198;DHT22;8206;51.440;6.914;2023-04-15T01:33:32;6.30;99.90
16198;DHT22;8206;51.440;6.914;2023-04-15T01:35:59;6.30;99.90
16198;DHT22;8206;51.440;6.914;2023-04-15T01:38:26;6.30;99.90
16198;DHT22;8206;51.440;6.914;2023-04-15T01:40:53;6.30;99.90
16198;DHT22;8206;51.440;6.914;2023-04-15T01:43:21;6.40;99.90
16198;DHT22;8206;51.440;6.914;2023-04-15T01:45:47;6.30;99.90
16198;DHT22;8206;51.440;6.914;2023-04-15T01:48:14;6.30;99.90
16198;DHT22;8206;51.440;6.914;2023-04-15T01:50:41;6.20;99.90
16198;DHT22;8206;51.440;6.914;2023-04-15T01:53:08;6.20;99.90
16198;DHT22;8206;51.440;6.914;2023-04-15T01:55:35;6.10;99.90
16198;DHT22;8206;51.440;6.914;2023-04-15T01:58:02;6.20;99.90
16198;DHT22;8206;51.440;6.914;2023-04-15T02:00:30;6.20;99.90
16198;DHT22;8206;51.440;6.914;2023-04-15T02:02:57;6.20;99.90
16198;DHT22;8206;51.440;6.914;2023-04-15T02:05:23;6.10;99.90
16198;DHT22;8206;51.440;6.914;2023-04-15T02:07:50;6.10;99.90
16198;DHT22;8206;51.440;6.914;2023-04-15T02:10:18;6.20;99.90
16198;DHT22;8206;51.440;6.914;2023-04-15T02:12:45;6.10;99.90
16198;DHT22;8206;51.440;6.914;2023-04-15T02:15:11;6.10;99.90
16198;DHT22;8206;51.440;6.914;2023-04-15T02:17:40;6.10;99.90
16198;DHT22;8206;51.440;6.914;2023-04-15T02:20:10;6.00;99.90
16198;DHT22;8206;51.440;6.914;2023-04-15T02:22:37;6.00;99.90
16198;DHT22;8206;51.440;6.914;2023-04-15T02:25:05;5.90;99.90
16198;DHT22;8206;51.440;6.914;2023-04-15T02:27:32;5.90;99.90
16198;DHT22;8206;51.440;6.914;2023-04-15T02:29:58;5.80;99.90
16198;DHT22;8206;51.440;6.914;2023-04-15T02:32:25;5.70;99.90
16198;DHT22;8206;51.440;6.914;2023-04-15T02:34:54;5.70;99.90
16198;DHT22;8206;51.440;6.914;2023-04-15T02:37:21;5.60;99.90
16198;DHT22;8206;51.440;6.914;2023-04-15T02:39:49;5.60;99.90
16198;DHT22;8206;51.440;6.914;2023-04-15T02:42:15;5.60;99.90
16198;DHT22;8206;51.440;6.914;2023-04-15T02:44:42;5.60;99.90
16198;DHT22;8206;51.440;6.914;2023-04-15T02:47:09;5.60;99.90
16198;DHT22;8206;51.440;6.914;2023-04-15T02:49:37;5.60;99.90
16198;DHT22;8206;51.440;6.914;2023-04-15T02:52:06;5.70;99.90
16198;DHT22;8206;51.440;6.914;2023-04-15T02:54:32;5.70;99.90
16198;DHT22;8206;51.440;6.914;2023-04-15T02:56:59;5.70;99.90
16198;DHT22;8206;51.440;6.914;2023-04-15T02:59:26;5.70;99.90
16198;DHT22;8206;51.440;6.914;2023-04-15T03:01:52;5.70;99.90
16198;DHT22;8206;51.440;6.914;2023-04-15T03:04:20;5.70;99.90
16198;DHT22;8206;51.440;6.914;2023-04-15T03:06:47;5.80;99.90
16198;DHT22;8206;51.440;6.914;2023-04-15T03:09:15;5.80;99.90
16198;DHT22;8206;51.440;6.914;2023-04-15T03:11:42;5.80;99.90
16198;DHT22;8206;51.440;6.914;2023-04-15T03:14:08;5.80;99.90
16198;DHT22;8206;51.440;6.914;2023-04-15T03:16:35;5.80;99.90
16198;DHT22;8206;51.440;6.914;2023-04-15T03:19:02;5.80;99.90
16198;DHT22;8206;51.440;6.914;2023-04-15T03:21:28;5.80;99.90
16198;DHT22;8206;51.440;6.914;2023-04-15T03:23:55;5.80;99.90
16198;DHT22;8206;51.440;6.914;2023-04-15T03:26:27;5.80;99.90
16198;DHT22;8206;51.440;6.914;2023-04-15T03:28:54;5.80;99.90
16198;DHT22;8206;51.440;6.914;2023-04-15T03:31:20;5.70;99.90
16198;DHT22;8206;51.440;6.914;2023-04-15T03:33:47;5.70;99.90
16198;DHT22;8206;51.440;6.914;2023-04-15T03:36:14;5.70;99.90
16198;DHT22;8206;51.440;6.914;2023-04-15T03:38:41;5.70;99.90
16198;DHT22;8206;51.440;6.914;2023-04-15T03:41:08;5.70;99.90
16198;DHT22;8206;51.440;6.914;2023-04-15T03:43:36;5.60;99.90
16198;DHT22;8206;51.440;6.914;2023-04-15T03:46:03;5.50;99.90
16198;DHT22;8206;51.440;6.914;2023-04-15T03:48:30;5.50;99.90
16198;DHT22;8206;51.440;6.914;2023-04-15T03:50:56;5.50;99.90
16198;DHT22;8206;51.440;6.914;2023-04-15T03:53:23;5.60;99.90
16198;DHT22;8206;51.440;6.914;2023-04-15T03:55:50;5.50;99.90
16198;DHT22;8206;51.440;6.914;2023-04-15T03:58:16;5.50;99.90
16198;DHT22;8206;51.440;6.914;2023-04-15T04:00:44;5.50;99.90
16198;DHT22;8206;51.440;6.914;2023-04-15T04:03:11;5.50;99.90
16198;DHT22;8206;51.440;6.914;2023-04-15T04:05:38;5.50;99.90
16198;DHT22;8206;51.440;6.914;2023-04-15T04:08:06;5.40;99.90
16198;DHT22;8206;51.440;6.914;2023-04-15T04:10:32;5.40;99.90
16198;DHT22;8206;51.440;6.914;2023-04-15T04:12:59;5.40;99.90
16198;DHT22;8206;51.440;6.914;2023-04-15T04:15:26;5.30;99.90
16198;DHT22;8206;51.440;6.914;2023-04-15T04:17:54;5.40;99.90
16198;DHT22;8206;51.440;6.914;2023-04-15T04:20:21;5.40;99.90
16198;DHT22;8206;51.440;6.914;2023-04-15T04:22:48;5.30;99.90
16198;DHT22;8206;51.440;6.914;2023-04-15T04:25:15;5.30;99.90
16198;DHT22;8206;51.440;6.914;2023-04-15T04:27:42;5.20;99.90
16198;DHT22;8206;51.440;6.914;2023-04-15T04:30:10;5.30;99.90
16198;DHT22;8206;51.440;6.914;2023-04-15T04:32:37;5.30;99.90
16198;DHT22;8206;51.440;6.914;2023-04-15T04:35:06;5.30;99.90
16198;DHT22;8206;51.440;6.914;2023-04-15T04:37:33;5.30;99.90
16198;DHT22;8206;51.440;6.914;2023-04-15T04:40:00;5.20;99.90
16198;DHT22;8206;51.440;6.914;2023-04-15T04:42:26;5.20;99.90
16198;DHT22;8206;51.440;6.914;2023-04-15T04:44:53;5.20;99.90
16198;DHT22;8206;51.440;6.914;2023-04-15T04:47:20;5.20;99.90
16198;DHT22;8206;51.440;6.914;2023-04-15T04:49:46;5.20;99.90
16198;DHT22;8206;51.440;6.914;2023-04-15T04:52:14;5.20;99.90
16198;DHT22;8206;51.440;6.914;2023-04-15T04:54:41;5.20;99.90
16198;DHT22;8206;51.440;6.914;2023-04-15T04:57:08;5.20;99.90
16198;DHT22;8206;51.440;6.914;2023-04-15T04:59:34;5.20;99.90
16198;DHT22;8206;51.440;6.914;2023-04-15T05:02:01;5.20;99.90
16198;DHT22;8206;51.440;6.914;2023-04-15T05:04:28;5.20;99.90
16198;DHT22;8206;51.440;6.914;2023-04-15T05:06:56;5.20;99.90
16198;DHT22;8206;51.440;6.914;2023-04-15T05:09:25;5.20;99.90
16198;DHT22;8206;51.440;6.914;2023-04-15T05:11:51;5.20;99.90
16198;DHT22;8206;51.440;6.914;2023-04-15T05:14:18;5.20;99.90
16198;DHT22;8206;51.440;6.914;2023-04-15T05:16:44;5.30;99.90
16198;DHT22;8206;51.440;6.914;2023-04-15T05:19:11;5.30;99.90
16198;DHT22;8206;51.440;6.914;2023-04-15T05:21:38;5.30;99.90
16198;DHT22;8206;51.440;6.914;2023-04-15T05:24:05;5.30;99.90
16198;DHT22;8206;51.440;6.914;2023-04-15T05:26:33;5.40;99.90
16198;DHT22;8206;51.440;6.914;2023-04-15T05:29:00;5.40;99.90
16198;DHT22;8206;51.440;6.914;2023-04-15T05:31:26;5.40;99.90
16198;DHT22;8206;51.440;6.914;2023-04-15T05:33:53;5.50;99.90
16198;DHT22;8206;51.440;6.914;2023-04-15T05:36:20;5.50;99.90
16198;DHT22;8206;51.440;6.914;2023-04-15T05:38:46;5.50;99.90
16198;DHT22;8206;51.440;6.914;2023-04-15T05:41:13;5.60;99.90
16198;DHT22;8206;51.440;6.914;2023-04-15T05:43:42;5.70;99.90
16198;DHT22;8206;51.440;6.914;2023-04-15T05:46:08;5.80;99.90
16198;DHT22;8206;51.440;6.914;2023-04-15T05:48:35;5.90;99.90
16198;DHT22;8206;51.440;6.914;2023-04-15T05:51:02;6.10;99.90
16198;DHT22;8206;51.440;6.914;2023-04-15T05:53:28;6.30;99.90
16198;DHT22;8206;51.440;6.914;2023-04-15T05:55:56;6.50;99.90
16198;DHT22;8206;51.440;6.914;2023-04-15T05:58:23;6.80;99.90
16198;DHT22;8206;51.440;6.914;2023-04-15T06:00:51;7.10;99.90
16198;DHT22;8206;51.440;6.914;2023-04-15T06:03:17;7.30;99.90
16198;DHT22;8206;51.440;6.914;2023-04-15T06:05:44;7.20;99.90
16198;DHT22;8206;51.440;6.914;2023-04-15T06:08:11;7.40;99.90
16198;DHT22;8206;51.440;6.914;2023-04-15T06:10:38;7.60;99.90
16198;DHT22;8206;51.440;6.914;2023-04-15T06:13:05;7.80;99.90
16198;DHT22;8206;51.440;6.914;2023-04-15T06:15:31;7.90;99.90
16198;DHT22;8206;51.440;6.914;2023-04-15T06:17:59;8.00;99.90
16198;DHT22;8206;51.440;6.914;2023-04-15T06:20:26;8.10;99.90
16198;DHT22;8206;51.440;6.914;2023-04-15T06:22:53;8.30;99.90
16198;DHT22;8206;51.440;6.914;2023-04-15T06:25:19;8.40;99.90
16198;DHT22;8206;51.440;6.914;2023-04-15T06:27:46;8.50;99.90
16198;DHT22;8206;51.440;6.914;2023-04-15T06:30:13;8.50;99.90
16198;DHT22;8206;51.440;6.914;2023-04-15T06:32:40;8.60;99.90
16198;DHT22;8206;51.440;6.914;2023-04-15T06:35:08;8.70;99.90
16198;DHT22;8206;51.440;6.914;2023-04-15T06:37:36;8.80;99.90
16198;DHT22;8206;51.440;6.914;2023-04-15T06:40:02;8.90;99.90
16198;DHT22;8206;51.440;6.914;2023-04-15T06:42:30;9.00;99.90
16198;DHT22;8206;51.440;6.914;2023-04-15T06:44:57;9.20;99.90
16198;DHT22;8206;51.440;6.914;2023-04-15T06:47:24;9.40;99.90
16198;DHT22;8206;51.440;6.914;2023-04-15T06:49:51;9.50;99.90
16198;DHT22;8206;51.440;6.914;2023-04-15T06:52:19;9.50;99.90
16198;DHT22;8206;51.440;6.914;2023-04-15T06:54:45;9.60;99.90
16198;DHT22;8206;51.440;6.914;2023-04-15T06:57:12;9.70;99.90
16198;DHT22;8206;51.440;6.914;2023-04-15T06:59:39;9.80;99.90
16198;DHT22;8206;51.440;6.914;2023-04-15T07:02:10;9.70;99.90
16198;DHT22;8206;51.440;6.914;2023-04-15T07:04:37;9.70;99.90
16198;DHT22;8206;51.440;6.914;2023-04-15T07:07:04;9.80;99.90
16198;DHT22;8206;51.440;6.914;2023-04-15T07:09:33;9.90;99.90
16198;DHT22;8206;51.440;6.914;2023-04-15T07:12:00;10.00;99.90
16198;DHT22;8206;51.440;6.914;2023-04-15T07:14:27;10.10;99.90
16198;DHT22;8206;51.440;6.914;2023-04-15T07:16:53;10.10;99.90
16198;DHT22;8206;51.440;6.914;2023-04-15T07:19:20;10.10;99.90
16198;DHT22;8206;51.440;6.914;2023-04-15T07:21:48;10.20;99.90
16198;DHT22;8206;51.440;6.914;2023-04-15T07:24:14;10.20;99.90
16198;DHT22;8206;51.440;6.914;2023-04-15T07:26:44;10.30;99.90
16198;DHT22;8206;51.440;6.914;2023-04-15T07:29:11;10.40;99.90
16198;DHT22;8206;51.440;6.914;2023-04-15T07:31:39;10.40;99.90
16198;DHT22;8206;51.440;6.914;2023-04-15T07:34:06;10.50;99.90
16198;DHT22;8206;51.440;6.914;2023-04-15T07:36:32;10.60;99.90
16198;DHT22;8206;51.440;6.914;2023-04-15T07:38:59;10.70;99.90
16198;DHT22;8206;51.440;6.914;2023-04-15T07:41:28;10.70;99.90
16198;DHT22;8206;51.440;6.914;2023-04-15T07:43:56;10.70;99.90
16198;DHT22;8206;51.440;6.914;2023-04-15T07:46:23;10.60;99.90
16198;DHT22;8206;51.440;6.914;2023-04-15T07:48:51;10.60;99.90
16198;DHT22;8206;51.440;6.914;2023-04-15T07:51:18;10.60;99.90
16198;DHT22;8206;51.440;6.914;2023-04-15T07:53:45;10.70;99.90
16198;DHT22;8206;51.440;6.914;2023-04-15T07:56:12;10.80;99.90
16198;DHT22;8206;51.440;6.914;2023-04-15T07:58:38;11.00;99.90
16198;DHT22;8206;51.440;6.914;2023-04-15T08:01:07;11.10;99.90
16198;DHT22;8206;51.440;6.914;2023-04-15T08:03:33;11.30;99.90
16198;DHT22;8206;51.440;6.914;2023-04-15T08:06:00;11.50;99.90
16198;DHT22;8206;51.440;6.914;2023-04-15T08:08:27;11.70;99.90
16198;DHT22;8206;51.440;6.914;2023-04-15T08:10:54;11.80;99.90
16198;DHT22;8206;51.440;6.914;2023-04-15T08:13:20;11.90;99.90
16198;DHT22;8206;51.440;6.914;2023-04-15T08:16:19;12.10;99.90
16198;DHT22;8206;51.440;6.914;2023-04-15T08:18:47;11.80;99.90
16198;DHT22;8206;51.440;6.914;2023-04-15T08:21:15;11.80;99.90
16198;DHT22;8206;51.440;6.914;2023-04-15T08:23:42;11.60;99.90
16198;DHT22;8206;51.440;6.914;2023-04-15T08:26:09;11.70;99.90
16198;DHT22;8206;51.440;6.914;2023-04-15T08:28:37;11.80;99.90
16198;DHT22;8206;51.440;6.914;2023-04-15T08:31:04;11.80;99.90
16198;DHT22;8206;51.440;6.914;2023-04-15T08:33:32;12.00;99.90
16198;DHT22;8206;51.440;6.914;2023-04-15T08:35:58;12.10;99.90
16198;DHT22;8206;51.440;6.914;2023-04-15T08:38:25;12.30;99.90
16198;DHT22;8206;51.440;6.914;2023-04-15T08:40:52;12.50;99.90
16198;DHT22;8206;51.440;6.914;2023-04-15T08:43:21;12.30;99.90
16198;DHT22;8206;51.440;6.914;2023-04-15T08:45:51;12.30;99.90
16198;DHT22;8206;51.440;6.914;2023-04-15T08:48:18;12.30;99.90
16198;DHT22;8206;51.440;6.914;2023-04-15T08:50:47;12.70;99.90
16198;DHT22;8206;51.440;6.914;2023-04-15T08:53:14;12.60;99.90
16198;DHT22;8206;51.440;6.914;2023-04-15T08:55:43;12.70;99.90
16198;DHT22;8206;51.440;6.914;2023-04-15T08:58:11;12.60;99.90
16198;DHT22;8206;51.440;6.914;2023-04-15T09:00:38;12.50;99.90
16198;DHT22;8206;51.440;6.914;2023-04-15T09:03:05;12.60;99.90
16198;DHT22;8206;51.440;6.914;2023-04-15T09:05:32;12.50;99.90
16198;DHT22;8206;51.440;6.914;2023-04-15T09:08:00;12.20;99.90
16198;DHT22;8206;51.440;6.914;2023-04-15T09:10:28;12.30;99.90
16198;DHT22;8206;51.440;6.914;2023-04-15T09:12:55;12.30;99.90
16198;DHT22;8206;51.440;6.914;2023-04-15T09:15:24;12.00;99.90
16198;DHT22;8206;51.440;6.914;2023-04-15T09:17:51;11.90;99.90
16198;DHT22;8206;51.440;6.914;2023-04-15T09:20:18;11.80;99.90
16198;DHT22;8206;51.440;6.914;2023-04-15T09:22:47;11.90;99.90
16198;DHT22;8206;51.440;6.914;2023-04-15T09:25:28;11.90;99.90
16198;DHT22;8206;51.440;6.914;2023-04-15T09:27:56;12.00;99.90
16198;DHT22;8206;51.440;6.914;2023-04-15T09:30:23;12.40;99.90
16198;DHT22;8206;51.440;6.914;2023-04-15T09:32:51;12.70;99.90
16198;DHT22;8206;51.440;6.914;2023-04-15T09:35:19;12.70;99.90
16198;DHT22;8206;51.440;6.914;2023-04-15T09:37:46;12.60;99.90
16198;DHT22;8206;51.440;6.914;2023-04-15T09:40:13;12.50;99.90
16198;DHT22;8206;51.440;6.914;2023-04-15T09:42:54;12.70;99.90
16198;DHT22;8206;51.440;6.914;2023-04-15T09:45:22;12.70;99.90
16198;DHT22;8206;51.440;6.914;2023-04-15T09:47:49;12.80;99.90
16198;DHT22;8206;51.440;6.914;2023-04-15T09:50:17;13.10;99.90
16198;DHT22;8206;51.440;6.914;2023-04-15T09:52:45;13.20;99.90
16198;DHT22;8206;51.440;6.914;2023-04-15T09:55:12;12.80;99.90
16198;DHT22;8206;51.440;6.914;2023-04-15T09:57:40;12.70;99.90
16198;DHT22;8206;51.440;6.914;2023-04-15T10:00:09;12.40;99.90
16198;DHT22;8206;51.440;6.914;2023-04-15T10:02:36;12.40;99.90
16198;DHT22;8206;51.440;6.914;2023-04-15T10:05:03;12.40;99.90
16198;DHT22;8206;51.440;6.914;2023-04-15T10:07:31;12.50;99.90
16198;DHT22;8206;51.440;6.914;2023-04-15T10:09:59;12.80;99.90
16198;DHT22;8206;51.440;6.914;2023-04-15T10:12:26;12.90;99.90
16198;DHT22;8206;51.440;6.914;2023-04-15T10:14:57;13.00;99.90
16198;DHT22;8206;51.440;6.914;2023-04-15T10:17:27;12.90;99.90
16198;DHT22;8206;51.440;6.914;2023-04-15T10:19:54;12.70;99.90
16198;DHT22;8206;51.440;6.914;2023-04-15T10:22:21;12.50;99.90
16198;DHT22;8206;51.440;6.914;2023-04-15T10:24:49;12.30;99.90
16198;DHT22;8206;51.440;6.914;2023-04-15T10:27:16;12.30;99.90
16198;DHT22;8206;51.440;6.914;2023-04-15T10:29:43;12.80;99.90
16198;DHT22;8206;51.440;6.914;2023-04-15T10:32:11;13.00;99.90
16198;DHT22;8206;51.440;6.914;2023-04-15T10:34:40;13.10;99.90
16198;DHT22;8206;51.440;6.914;2023-04-15T10:37:09;13.00;99.90
16198;DHT22;8206;51.440;6.914;2023-04-15T10:39:43;13.00;99.90
16198;DHT22;8206;51.440;6.914;2023-04-15T10:42:10;12.70;99.90
16198;DHT22;8206;51.440;6.914;2023-04-15T10:44:37;12.50;99.90
16198;DHT22;8206;51.440;6.914;2023-04-15T10:47:09;12.80;99.90
16198;DHT22;8206;51.440;6.914;2023-04-15T10:49:43;12.80;99.90
16198;DHT22;8206;51.440;6.914;2023-04-15T10:52:10;12.80;99.90
16198;DHT22;8206;51.440;6.914;2023-04-15T10:54:37;12.90;99.90
16198;DHT22;8206;51.440;6.914;2023-04-15T10:57:12;13.10;99.90
16198;DHT22;8206;51.440;6.914;2023-04-15T11:00:01;13.10;99.90
16198;DHT22;8206;51.440;6.914;2023-04-15T11:02:45;13.10;99.90
16198;DHT22;8206;51.440;6.914;2023-04-15T11:05:14;12.70;99.90
16198;DHT22;8206;51.440;6.914;2023-04-15T11:07:53;12.40;99.90
16198;DHT22;8206;51.440;6.914;2023-04-15T11:10:50;12.30;99.90
16198;DHT22;8206;51.440;6.914;2023-04-15T11:13:27;12.10;99.90
16198;DHT22;8206;51.440;6.914;2023-04-15T11:16:04;12.10;99.90
16198;DHT22;8206;51.440;6.914;2023-04-15T11:18:33;12.10;99.90
16198;DHT22;8206;51.440;6.914;2023-04-15T11:21:03;12.00;99.90
16198;DHT22;8206;51.440;6.914;2023-04-15T11:23:36;12.20;99.90
16198;DHT22;8206;51.440;6.914;2023-04-15T11:26:04;12.20;99.90
16198;DHT22;8206;51.440;6.914;2023-04-15T11:28:34;12.30;99.90
16198;DHT22;8206;51.440;6.914;2023-04-15T11:33:11;12.30;99.90
16198;DHT22;8206;51.440;6.914;2023-04-15T11:35:39;12.10;99.90
16198;DHT22;8206;51.440;6.914;2023-04-15T11:38:08;11.90;99.90
16198;DHT22;8206;51.440;6.914;2023-04-15T11:40:36;11.80;99.90
16198;DHT22;8206;51.440;6.914;2023-04-15T11:43:05;11.80;99.90
16198;DHT22;8206;51.440;6.914;2023-04-15T11:45:32;11.70;99.90
16198;DHT22;8206;51.440;6.914;2023-04-15T11:48:05;11.70;99.90
16198;DHT22;8206;51.440;6.914;2023-04-15T11:50:34;11.70;99.90
16198;DHT22;8206;51.440;6.914;2023-04-15T11:53:02;11.60;99.90
16198;DHT22;8206;51.440;6.914;2023-04-15T11:55:29;11.50;99.90
16198;DHT22;8206;51.440;6.914;2023-04-15T11:58:07;11.60;99.90
16198;DHT22;8206;51.440;6.914;2023-04-15T12:00:34;11.50;99.90
16198;DHT22;8206;51.440;6.914;2023-04-15T12:03:11;11.50;99.90
16198;DHT22;8206;51.440;6.914;2023-04-15T12:06:07;11.30;99.90
16198;DHT22;8206;51.440;6.914;2023-04-15T12:09:01;11.20;99.90
16198;DHT22;8206;51.440;6.914;2023-04-15T12:11:40;11.00;99.90
16198;DHT22;8206;51.440;6.914;2023-04-15T12:14:12;10.90;99.90
16198;DHT22;8206;51.440;6.914;2023-04-15T12:16:43;10.80;99.90
16198;DHT22;8206;51.440;6.914;2023-04-15T12:19:11;10.70;99.90
16198;DHT22;8206;51.440;6.914;2023-04-15T12:21:41;10.90;99.90
16198;DHT22;8206;51.440;6.914;2023-04-15T12:24:10;10.90;99.90
16198;DHT22;8206;51.440;6.914;2023-04-15T12:26:42;11.00;99.90
16198;DHT22;8206;51.440;6.914;2023-04-15T12:29:10;11.10;99.90
16198;DHT22;8206;51.440;6.914;2023-04-15T12:31:46;11.20;99.90
16198;DHT22;8206;51.440;6.914;2023-04-15T12:34:13;11.40;99.90
16198;DHT22;8206;51.440;6.914;2023-04-15T12:36:41;11.30;99.90
16198;DHT22;8206;51.440;6.914;2023-04-15T12:39:08;11.20;99.90
16198;DHT22;8206;51.440;6.914;2023-04-15T12:41:34;11.10;99.90
16198;DHT22;8206;51.440;6.914;2023-04-15T12:44:01;11.20;99.90
16198;DHT22;8206;51.440;6.914;2023-04-15T12:46:28;11.20;99.90
16198;DHT22;8206;51.440;6.914;2023-04-15T12:48:56;11.40;99.90
16198;DHT22;8206;51.440;6.914;2023-04-15T12:51:22;11.40;99.90
16198;DHT22;8206;51.440;6.914;2023-04-15T12:53:51;11.50;99.90
16198;DHT22;8206;51.440;6.914;2023-04-15T12:56:17;11.50;99.90
16198;DHT22;8206;51.440;6.914;2023-04-15T12:58:44;11.30;99.90
16198;DHT22;8206;51.440;6.914;2023-04-15T13:01:11;11.50;99.90
16198;DHT22;8206;51.440;6.914;2023-04-15T13:03:37;11.50;99.90
16198;DHT22;8206;51.440;6.914;2023-04-15T13:06:04;11.50;99.90
16198;DHT22;8206;51.440;6.914;2023-04-15T13:08:31;11.50;99.90
16198;DHT22;8206;51.440;6.914;2023-04-15T13:10:59;11.50;99.90
16198;DHT22;8206;51.440;6.914;2023-04-15T13:13:26;11.50;99.90
16198;DHT22;8206;51.440;6.914;2023-04-15T13:15:52;11.50;99.90
16198;DHT22;8206;51.440;6.914;2023-04-15T13:18:19;11.50;99.90
16198;DHT22;8206;51.440;6.914;2023-04-15T13:20:48;11.30;99.90
16198;DHT22;8206;51.440;6.914;2023-04-15T13:23:14;11.20;99.90
16198;DHT22;8206;51.440;6.914;2023-04-15T13:25:41;11.20;99.90
16198;DHT22;8206;51.440;6.914;2023-04-15T13:28:10;11.00;99.90
16198;DHT22;8206;51.440;6.914;2023-04-15T13:30:36;10.90;99.90
16198;DHT22;8206;51.440;6.914;2023-04-15T13:33:03;11.00;99.90
16198;DHT22;8206;51.440;6.914;2023-04-15T13:35:31;11.00;99.90
16198;DHT22;8206;51.440;6.914;2023-04-15T13:37:58;11.00;99.90
16198;DHT22;8206;51.440;6.914;2023-04-15T13:40:24;11.00;99.90
16198;DHT22;8206;51.440;6.914;2023-04-15T13:42:51;11.10;99.90
16198;DHT22;8206;51.440;6.914;2023-04-15T13:45:19;11.20;99.90
16198;DHT22;8206;51.440;6.914;2023-04-15T13:47:46;11.20;99.90
16198;DHT22;8206;51.440;6.914;2023-04-15T13:50:13;11.10;99.90
16198;DHT22;8206;51.440;6.914;2023-04-15T13:52:39;11.00;99.90
16198;DHT22;8206;51.440;6.914;2023-04-15T13:55:07;11.00;99.90
16198;DHT22;8206;51.440;6.914;2023-04-15T13:57:34;11.10;99.90
16198;DHT22;8206;51.440;6.914;2023-04-15T14:00:01;11.30;99.90
16198;DHT22;8206;51.440;6.914;2023-04-15T14:02:29;11.50;99.90
16198;DHT22;8206;51.440;6.914;2023-04-15T14:04:56;11.60;99.90
16198;DHT22;8206;51.440;6.914;2023-04-15T14:07:23;11.80;99.90
16198;DHT22;8206;51.440;6.914;2023-04-15T14:09:50;11.90;99.90
16198;DHT22;8206;51.440;6.914;2023-04-15T14:12:16;11.70;99.90
16198;DHT22;8206;51.440;6.914;2023-04-15T14:14:43;11.40;99.90
16198;DHT22;8206;51.440;6.914;2023-04-15T14:17:11;11.20;99.90
16198;DHT22;8206;51.440;6.914;2023-04-15T14:19:39;11.00;99.90
16198;DHT22;8206;51.440;6.914;2023-04-15T14:22:05;10.90;99.90
16198;DHT22;8206;51.440;6.914;2023-04-15T14:24:32;11.00;99.90
16198;DHT22;8206;51.440;6.914;2023-04-15T14:26:59;11.10;99.90
16198;DHT22;8206;51.440;6.914;2023-04-15T14:29:26;11.30;99.90
16198;DHT22;8206;51.440;6.914;2023-04-15T14:31:53;11.20;99.90
16198;DHT22;8206;51.440;6.914;2023-04-15T14:34:22;11.20;99.90
16198;DHT22;8206;51.440;6.914;2023-04-15T14:36:51;11.00;99.90
16198;DHT22;8206;51.440;6.914;2023-04-15T14:39:18;10.90;99.90
16198;DHT22;8206;51.440;6.914;2023-04-15T14:41:45;10.90;99.90
16198;DHT22;8206;51.440;6.914;2023-04-15T14:44:11;10.80;99.90
16198;DHT22;8206;51.440;6.914;2023-04-15T14:46:38;10.60;99.90
16198;DHT22;8206;51.440;6.914;2023-04-15T14:49:06;10.70;99.90
16198;DHT22;8206;51.440;6.914;2023-04-15T14:51:33;10.70;99.90
16198;DHT22;8206;51.440;6.914;2023-04-15T14:54:01;10.60;99.90
16198;DHT22;8206;51.440;6.914;2023-04-15T14:56:27;10.60;99.90
16198;DHT22;8206;51.440;6.914;2023-04-15T14:58:54;10.60;99.90
16198;DHT22;8206;51.440;6.914;2023-04-15T15:01:21;10.50;99.90
16198;DHT22;8206;51.440;6.914;2023-04-15T15:03:48;10.50;99.90
16198;DHT22;8206;51.440;6.914;2023-04-15T15:06:14;10.60;99.90
16198;DHT22;8206;51.440;6.914;2023-04-15T15:08:41;10.60;99.90
16198;DHT22;8206;51.440;6.914;2023-04-15T15:11:09;10.60;99.90
16198;DHT22;8206;51.440;6.914;2023-04-15T15:13:36;10.70;99.90
16198;DHT22;8206;51.440;6.914;2023-04-15T15:16:02;10.90;99.90
16198;DHT22;8206;51.440;6.914;2023-04-15T15:18:29;10.90;99.90
16198;DHT22;8206;51.440;6.914;2023-04-15T15:20:56;10.70;99.90
16198;DHT22;8206;51.440;6.914;2023-04-15T15:23:23;10.70;99.90
16198;DHT22;8206;51.440;6.914;2023-04-15T15:25:50;10.50;99.90
16198;DHT22;8206;51.440;6.914;2023-04-15T15:28:18;10.30;99.90
16198;DHT22;8206;51.440;6.914;2023-04-15T15:30:46;10.20;99.90
16198;DHT22;8206;51.440;6.914;2023-04-15T15:33:12;10.00;99.90
16198;DHT22;8206;51.440;6.914;2023-04-15T15:35:39;10.00;99.90
16198;DHT22;8206;51.440;6.914;2023-04-15T15:38:07;9.90;99.90
16198;DHT22;8206;51.440;6.914;2023-04-15T15:40:33;9.90;99.90
16198;DHT22;8206;51.440;6.914;2023-04-15T15:43:00;9.90;99.90
16198;DHT22;8206;51.440;6.914;2023-04-15T15:45:28;10.00;99.90
16198;DHT22;8206;51.440;6.914;2023-04-15T15:47:55;9.90;99.90
16198;DHT22;8206;51.440;6.914;2023-04-15T15:50:23;9.90;99.90
16198;DHT22;8206;51.440;6.914;2023-04-15T15:52:50;9.90;99.90
16198;DHT22;8206;51.440;6.914;2023-04-15T15:55:16;9.90;99.90
16198;DHT22;8206;51.440;6.914;2023-04-15T15:57:43;9.90;99.90